Flight Track Log - Related Links

Times and Time Zones

All times are in EST time to prevent confusion due to time zone crossing. See the UAL33 flight status page for this flight to view local times or setup timezone preferences in your user account.

Time Position Orientation Groundspeed Altitude Reporting Facility
EST Latitude Longitude Course Direction KTS MPH feet Rate Location/Type
Fri 04:54:00 AM 36.0008 140.8341 57° Northeast  Level FlightAware Approximate
Fri 04:55:00 AM 36.0791 140.9840 57° Northeast  Level FlightAware Approximate
Fri 04:56:00 AM 36.1572 141.1341 57° Northeast  Level FlightAware Approximate
Fri 04:57:00 AM 36.2357 141.2856 57° Northeast  Level FlightAware Approximate
Fri 04:58:00 AM 36.3140 141.4375 57° Northeast  Level FlightAware Approximate
Fri 04:59:00 AM 36.3920 141.5894 57° Northeast  Level FlightAware Approximate
Fri 05:00:00 AM 36.4697 141.7415 58° Northeast  Level FlightAware Approximate
Fri 05:01:00 AM 36.5473 141.8940 58° Northeast  Level FlightAware Approximate
Fri 05:02:00 AM 36.6247 142.0468 58° Northeast  Level FlightAware Approximate
Fri 05:03:00 AM 36.7019 142.1999 58° Northeast  Level FlightAware Approximate
Fri 05:04:00 AM 36.7789 142.3533 58° Northeast  Level FlightAware Approximate
Fri 05:05:00 AM 36.8557 142.5070 58° Northeast  Level FlightAware Approximate
Fri 05:06:00 AM 36.9323 142.6610 58° Northeast  Level FlightAware Approximate
Fri 05:07:00 AM 37.0088 142.8153 58° Northeast  Level FlightAware Approximate
Fri 05:08:00 AM 37.0850 142.9700 58° Northeast  Level FlightAware Approximate
Fri 05:09:00 AM 37.1553 143.1143 59° Northeast  Level FlightAware Approximate
Fri 05:10:00 AM 37.2308 143.2698 59° Northeast  Level FlightAware Approximate
Fri 05:11:00 AM 37.3061 143.4256 59° Northeast  Level FlightAware Approximate
Fri 05:12:00 AM 37.3812 143.5817 59° Northeast  Level FlightAware Approximate
Fri 05:13:00 AM 37.4561 143.7381 59° Northeast  Level FlightAware Approximate
Fri 05:14:00 AM 37.5307 143.8948 59° Northeast  Level FlightAware Approximate
Fri 05:15:00 AM 37.6052 144.0519 59° Northeast  Level FlightAware Approximate
Fri 05:16:00 AM 37.6795 144.2092 59° Northeast  Level FlightAware Approximate
Fri 05:17:00 AM 37.7535 144.3669 59° Northeast  Level FlightAware Approximate
Fri 05:18:00 AM 37.8273 144.5249 59° Northeast  Level FlightAware Approximate
Fri 05:19:00 AM 37.9009 144.6832 59° Northeast  Level FlightAware Approximate
Fri 05:20:00 AM 37.9743 144.8418 60° Northeast  Level FlightAware Approximate
Fri 05:21:00 AM 38.0476 145.0008 60° Northeast  Level FlightAware Approximate
Fri 05:22:00 AM 38.1205 145.1600 60° Northeast  Level FlightAware Approximate
Fri 05:23:00 AM 38.1933 145.3196 60° Northeast  Level FlightAware Approximate
Fri 05:24:00 AM 38.2659 145.4795 60° Northeast  Level FlightAware Approximate
Fri 05:25:00 AM 38.3382 145.6398 60° Northeast  Level FlightAware Approximate
Fri 05:26:00 AM 38.4103 145.8003 60° Northeast  Level FlightAware Approximate
Fri 05:27:00 AM 38.4822 145.9612 60° Northeast  Level FlightAware Approximate
Fri 05:28:00 AM 38.5539 146.1223 60° Northeast  Level FlightAware Approximate
Fri 05:29:00 AM 38.6253 146.2838 60° Northeast  Level FlightAware Approximate
Fri 05:30:00 AM 38.6983 146.4496 61° Northeast  Level FlightAware Approximate
Fri 05:31:00 AM 38.7693 146.6117 61° Northeast  Level FlightAware Approximate
Fri 05:32:00 AM 38.8400 146.7742 61° Northeast  Level FlightAware Approximate
Fri 05:33:00 AM 38.9106 146.9370 61° Northeast  Level FlightAware Approximate
Fri 05:34:00 AM 38.9809 147.1001 61° Northeast  Level FlightAware Approximate
Fri 05:35:00 AM 39.0511 147.2635 61° Northeast  Level FlightAware Approximate
Fri 05:36:00 AM 39.1212 147.4271 61° Northeast  Level FlightAware Approximate
Fri 05:37:00 AM 39.1911 147.5910 61° Northeast  Level FlightAware Approximate
Fri 05:38:00 AM 39.2607 147.7553 61° Northeast  Level FlightAware Approximate
Fri 05:39:00 AM 39.3302 147.9198 61° Northeast  Level FlightAware Approximate
Fri 05:40:00 AM 39.3993 148.0848 61° Northeast  Level FlightAware Approximate
Fri 05:41:00 AM 39.4683 148.2500 62° Northeast  Level FlightAware Approximate
Fri 05:42:00 AM 39.5370 148.4155 62° Northeast  Level FlightAware Approximate
Fri 05:43:00 AM 39.6055 148.5814 62° Northeast  Level FlightAware Approximate
Fri 05:44:00 AM 39.6737 148.7477 62° Northeast  Level FlightAware Approximate
Fri 05:45:00 AM 39.7417 148.9142 62° Northeast  Level FlightAware Approximate
Fri 05:46:00 AM 39.8095 149.0811 62° Northeast  Level FlightAware Approximate
Fri 05:47:00 AM 39.8770 149.2483 62° Northeast  Level FlightAware Approximate
Fri 05:48:00 AM 39.9443 149.4158 62° Northeast  Level FlightAware Approximate
Fri 05:49:00 AM 40.0113 149.5837 62° Northeast  Level FlightAware Approximate
Fri 05:50:00 AM 40.0781 149.7519 63° Northeast  Level FlightAware Approximate
Fri 05:51:00 AM 40.1446 149.9204 63° Northeast  Level FlightAware Approximate
Fri 05:52:00 AM 40.2110 150.0892 63° Northeast  Level FlightAware Approximate
Fri 05:53:00 AM 40.2770 150.2584 63° Northeast  Level FlightAware Approximate
Fri 05:54:00 AM 40.3428 150.4279 63° Northeast  Level FlightAware Approximate
Fri 05:55:00 AM 40.4084 150.5978 63° Northeast  Level FlightAware Approximate
Fri 05:56:00 AM 40.4737 150.7679 63° Northeast  Level FlightAware Approximate
Fri 05:57:00 AM 40.5388 150.9384 63° Northeast  Level FlightAware Approximate
Fri 05:58:00 AM 40.6036 151.1093 63° Northeast  Level FlightAware Approximate
Fri 05:59:00 AM 40.6682 151.2804 64° Northeast  Level FlightAware Approximate
Fri 06:00:00 AM 40.7325 151.4519 64° Northeast  Level FlightAware Approximate
Fri 06:01:00 AM 40.7966 151.6237 64° Northeast  Level FlightAware Approximate
Fri 06:02:00 AM 40.8604 151.7959 64° Northeast  Level FlightAware Approximate
Fri 06:03:00 AM 40.9239 151.9684 64° Northeast  Level FlightAware Approximate
Fri 06:04:00 AM 40.9872 152.1412 64° Northeast  Level FlightAware Approximate
Fri 06:05:00 AM 41.0502 152.3144 64° Northeast  Level FlightAware Approximate
Fri 06:06:00 AM 41.1130 152.4878 64° Northeast  Level FlightAware Approximate
Fri 06:07:00 AM 41.1755 152.6617 64° Northeast  Level FlightAware Approximate
Fri 06:08:00 AM 41.2378 152.8358 65° Northeast  Level FlightAware Approximate
Fri 06:09:00 AM 41.2998 153.0103 65° Northeast  Level FlightAware Approximate
Fri 06:10:00 AM 41.3615 153.1851 65° Northeast  Level FlightAware Approximate
Fri 06:11:00 AM 41.4229 153.3602 65° Northeast  Level FlightAware Approximate
Fri 06:12:00 AM 41.4841 153.5357 65° Northeast  Level FlightAware Approximate
Fri 06:13:00 AM 41.5450 153.7115 65° Northeast  Level FlightAware Approximate
Fri 06:14:00 AM 41.6057 153.8876 65° Northeast  Level FlightAware Approximate
Fri 06:15:00 AM 41.6661 154.0641 65° Northeast  Level FlightAware Approximate
Fri 06:16:00 AM 41.7262 154.2409 65° Northeast  Level FlightAware Approximate
Fri 06:17:00 AM 41.7860 154.4180 66° East  Level FlightAware Approximate
Fri 06:18:00 AM 41.8456 154.5954 66° East  Level FlightAware Approximate
Fri 06:19:00 AM 41.9049 154.7732 66° East  Level FlightAware Approximate
Fri 06:20:00 AM 41.9639 154.9513 66° East  Level FlightAware Approximate
Fri 06:21:00 AM 42.0227 155.1298 66° East  Level FlightAware Approximate
Fri 06:22:00 AM 42.0812 155.3085 66° East  Level FlightAware Approximate
Fri 06:23:00 AM 42.1394 155.4877 66° East  Level FlightAware Approximate
Fri 06:24:00 AM 42.1973 155.6671 66° East  Level FlightAware Approximate
Fri 06:25:00 AM 42.2549 155.8468 67° East  Level FlightAware Approximate
Fri 06:26:00 AM 42.3122 156.0269 67° East  Level FlightAware Approximate
Fri 06:27:00 AM 42.3693 156.2073 67° East  Level FlightAware Approximate
Fri 06:28:00 AM 42.4261 156.3881 67° East  Level FlightAware Approximate
Fri 06:29:00 AM 42.4826 156.5692 67° East  Level FlightAware Approximate
Fri 06:30:00 AM 42.5388 156.7505 67° East  Level FlightAware Approximate
Fri 06:31:00 AM 42.5947 156.9323 67° East  Level FlightAware Approximate
Fri 06:32:00 AM 42.6504 157.1143 67° East  Level FlightAware Approximate
Fri 06:33:00 AM 42.7057 157.2967 68° East  Level FlightAware Approximate
Fri 06:34:00 AM 42.7608 157.4794 68° East  Level FlightAware Approximate
Fri 06:35:00 AM 42.8156 157.6624 68° East  Level FlightAware Approximate
Fri 06:36:00 AM 42.8700 157.8457 68° East  Level FlightAware Approximate
Fri 06:37:00 AM 42.9242 158.0294 68° East  Level FlightAware Approximate
Fri 06:38:00 AM 42.9781 158.2134 68° East  Level FlightAware Approximate
Fri 06:39:00 AM 43.0317 158.3977 68° East  Level FlightAware Approximate
Fri 06:40:00 AM 43.0850 158.5824 68° East  Level FlightAware Approximate
Fri 06:41:00 AM 43.1381 158.7676 69° East  Level FlightAware Approximate
Fri 06:42:00 AM 43.1909 158.9532 69° East  Level FlightAware Approximate
Fri 06:43:00 AM 43.2434 159.1392 69° East  Level FlightAware Approximate
Fri 06:44:00 AM 43.2956 159.3254 69° East  Level FlightAware Approximate
Fri 06:45:00 AM 43.3475 159.5120 69° East  Level FlightAware Approximate
Fri 06:46:00 AM 43.3991 159.6989 69° East  Level FlightAware Approximate
Fri 06:47:00 AM 43.4504 159.8861 69° East  Level FlightAware Approximate
Fri 06:48:00 AM 43.5014 160.0736 69° East  Level FlightAware Approximate
Fri 06:49:00 AM 43.5521 160.2615 70° East  Level FlightAware Approximate
Fri 06:50:00 AM 43.6024 160.4496 70° East  Level FlightAware Approximate
Fri 06:51:00 AM 43.6525 160.6381 70° East  Level FlightAware Approximate
Fri 06:52:00 AM 43.7023 160.8269 70° East  Level FlightAware Approximate
Fri 06:53:00 AM 43.7527 161.0199 70° East  Level FlightAware Approximate
Fri 06:54:00 AM 43.8028 161.2132 70° East  Level FlightAware Approximate
Fri 06:55:00 AM 43.8526 161.4068 70° East  Level FlightAware Approximate
Fri 06:56:00 AM 43.9021 161.6008 70° East  Level FlightAware Approximate
Fri 06:57:00 AM 43.9512 161.7951 71° East  Level FlightAware Approximate
Fri 06:58:00 AM 44.0000 161.9897 71° East  Level FlightAware Approximate
Fri 06:59:00 AM 44.0485 162.1846 71° East  Level FlightAware Approximate
Fri 07:00:00 AM 44.0967 162.3798 71° East  Level FlightAware Approximate
Fri 07:01:00 AM 44.1445 162.5754 71° East  Level FlightAware Approximate
Fri 07:02:00 AM 44.1920 162.7713 71° East  Level FlightAware Approximate
Fri 07:03:00 AM 44.2391 162.9675 71° East  Level FlightAware Approximate
Fri 07:04:00 AM 44.2859 163.1640 72° East  Level FlightAware Approximate
Fri 07:05:00 AM 44.3324 163.3608 72° East  Level FlightAware Approximate
Fri 07:06:00 AM 44.3786 163.5579 72° East  Level FlightAware Approximate
Fri 07:07:00 AM 44.4244 163.7553 72° East  Level FlightAware Approximate
Fri 07:08:00 AM 44.4698 163.9530 72° East  Level FlightAware Approximate
Fri 07:09:00 AM 44.5149 164.1511 72° East  Level FlightAware Approximate
Fri 07:10:00 AM 44.5597 164.3495 72° East  Level FlightAware Approximate
Fri 07:11:00 AM 44.6041 164.5481 72° East  Level FlightAware Approximate
Fri 07:12:00 AM 44.6482 164.7471 73° East  Level FlightAware Approximate
Fri 07:13:00 AM 44.6919 164.9463 73° East  Level FlightAware Approximate
Fri 07:14:00 AM 44.7353 165.1459 73° East  Level FlightAware Approximate
Fri 07:15:00 AM 44.7784 165.3458 73° East  Level FlightAware Approximate
Fri 07:16:00 AM 44.8211 165.5459 73° East  Level FlightAware Approximate
Fri 07:16:20 AM 41.5667 167.3333 77° East 551 634 39,000  Level Oakland Oceanic (ODAPS)
Fri 07:29:16 AM 42.0000 170.0500 79° East 528 608 39,000  Level Oakland Oceanic (ODAPS)
Fri 07:30:01 AM 42.0333 170.2000 79° East 521 600 39,000  Level Oakland Oceanic (ODAPS)
Fri 07:43:07 AM 42.3667 172.7333 81° East 533 613 39,000  Level Oakland Oceanic (ODAPS)
Fri 07:57:01 AM 42.6667 175.5000 83° East 546 628 39,000  Level Oakland Oceanic (ODAPS)
Fri 08:10:51 AM 42.9000 178.3167 85° East 523 602 39,000  Level Oakland Oceanic (ODAPS)
Fri 08:19:38 AM 43.0000 180.0000 87° East 517 595 39,000  Level Oakland Oceanic (ODAPS)
Fri 08:24:43 AM 43.0333 -179.0000 87° East 524 603 39,000  Level Oakland Oceanic (ODAPS)
Fri 08:38:36 AM 43.1000 -176.2167 89° East 524 603 39,000  Level Oakland Oceanic (ODAPS)
Fri 08:52:26 AM 43.1000 -173.4667 91° East 521 600 39,000  Level Oakland Oceanic (ODAPS)
Fri 09:06:18 AM 43.0333 -170.7000 93° East 537 618 39,000  Level Oakland Oceanic (ODAPS)
Fri 09:09:48 AM 43.0000 -170.0000 87° East 539 620 39,000  Level Oakland Oceanic (ODAPS)
Fri 09:20:10 AM 43.0667 -167.8833 88° East 537 618 39,000  Level Oakland Oceanic (ODAPS)
Fri 09:34:02 AM 43.1167 -165.0667 90° East 533 613 39,000  Level Oakland Oceanic (ODAPS)
Fri 09:47:54 AM 43.0833 -162.2833 92° East 533 613 39,000  Level Oakland Oceanic (ODAPS)
Fri 09:59:13 AM 43.0000 -160.0000 94° East 544 626 39,000  Level Oakland Oceanic (ODAPS)
Fri 10:01:46 AM 42.9667 -159.4833 95° East 545 627 39,000  Level Oakland Oceanic (ODAPS)
Fri 10:15:39 AM 42.7667 -156.7000 97° East 545 627 39,000  Level Oakland Oceanic (ODAPS)
Fri 10:29:30 AM 42.5000 -153.9000 99° East 551 634 39,000  Level Oakland Oceanic (ODAPS)
Fri 10:43:22 AM 42.1500 -151.0333 101° East 579 666 39,000  Level Oakland Oceanic (ODAPS)
Fri 10:48:18 AM 42.0000 -150.0000 94° East 570 656 39,000  Level Oakland Oceanic (ODAPS)
Fri 10:57:15 AM 41.8833 -148.0833 96° East 559 643 39,000 44 Level Oakland Oceanic (ODAPS)
Fri 11:11:07 AM 41.6333 -145.2833 97° East 545 627 40,000 36 Climbing Oakland Oceanic (ODAPS)
Fri 11:24:58 AM 41.3333 -142.5167 99° East 551 634 40,000  Level Oakland Oceanic (ODAPS)
Fri 11:37:30 AM 41.0000 -140.0000 101° East 561 646 40,000  Level Oakland Oceanic (ODAPS)
Fri 11:38:51 AM 40.9667 -139.7333 102° East 562 647 40,000  Level Oakland Oceanic (ODAPS)
Fri 11:52:44 AM 40.5000 -136.9667 103° East 566 651 40,000  Level Oakland Oceanic (ODAPS)
Fri 12:06:34 PM 39.9667 -134.2000 105° East 563 648 40,000  Level Oakland Oceanic (ODAPS)
Fri 12:20:27 PM 39.3500 -131.4667 107° East 576 663 40,000  Level Oakland Oceanic (ODAPS)
Fri 12:28:01 PM 39.0000 -130.0000 102° East 572 658 40,000  Level Oakland Oceanic (ODAPS)
Fri 12:34:14 PM 38.7833 -128.7500 102° East 571 657 40,000  Level Oakland Oceanic (ODAPS)
Fri 12:40:36 PM 38.5647 -127.5094 111° Southeast 580 667 40,000  Level Oakland Center
Fri 12:41:00 PM 38.5393 -127.3876 103° East 571 657 40,000 -98 Level FlightAware Transoceanic
Fri 12:41:37 PM 38.5186 -127.2694 104° East 582 670 39,900  Descending Oakland Center
Fri 12:42:00 PM 38.5031 -127.1937 103° East 571 657 40,000  Climbing FlightAware Transoceanic
Fri 12:42:39 PM 38.4811 -127.0706 103° East 580 667 39,900  Descending Oakland Center
Fri 12:43:00 PM 38.4667 -127.0000 111° Southeast 571 657 40,000  Climbing FlightAware Transoceanic
Fri 12:43:40 PM 38.4303 -126.8761 108° East 579 666 39,900  Descending Oakland Center
Fri 12:44:00 PM 38.4094 -126.8114 111° Southeast 571 657 40,000  Climbing FlightAware Transoceanic
Fri 12:44:42 PM 38.3656 -126.6886 114° Southeast 580 667 39,900  Descending Oakland Center
Fri 12:45:00 PM 38.3518 -126.6232 111° Southeast 571 657 40,000 98 Climbing FlightAware Transoceanic
Fri 12:45:43 PM 38.2967 -126.5025 115° Southeast 582 670 40,000  Level Oakland Center
Fri 12:46:45 PM 38.2275 -126.3167 115° Southeast 582 670 40,000  Level Oakland Center
Fri 12:47:46 PM 38.1558 -126.1225 115° Southeast 580 667 40,000 -49 Level Oakland Center
Fri 12:48:48 PM 38.0853 -125.9389 116° Southeast 582 670 39,900  Descending Oakland Center
Fri 12:49:49 PM 38.0161 -125.7542 115° Southeast 582 670 40,000 49 Climbing Oakland Center
Fri 12:50:50 PM 37.9456 -125.5711 116° Southeast 580 667 40,000  Level Oakland Center
Fri 12:51:52 PM 37.8617 -125.3492 116° Southeast 584 672 40,000 -49 Level Oakland Center
Fri 12:52:53 PM 37.7917 -125.1647 116° Southeast 583 671 39,900  Descending Oakland Center
Fri 12:53:55 PM 37.7225 -124.9811 115° Southeast 581 669 40,000 49 Climbing Oakland Center
Fri 12:54:56 PM 37.6519 -124.7975 116° Southeast 583 671 40,000 -49 Level Oakland Center
Fri 12:55:57 PM 37.5814 -124.6161 116° Southeast 580 667 39,900  Descending Oakland Center
Fri 12:56:59 PM 37.5103 -124.4331 116° Southeast 584 672 40,000 49 Climbing Oakland Center
Fri 12:58:00 PM 37.4389 -124.2494 116° Southeast 585 673 40,000 -49 Level Oakland Center
Fri 12:59:02 PM 37.3675 -124.0675 116° Southeast 585 673 39,900  Descending Oakland Center
Fri 01:00:03 PM 37.2781 -123.8444 117° Southeast 595 685 40,000 49 Climbing Oakland Center
Fri 01:01:04 PM 37.2053 -123.6617 117° Southeast 591 680 40,000  Level Oakland Center
Fri 01:02:06 PM 37.1322 -123.4800 117° Southeast 589 678 40,000 -49 Level Oakland Center
Fri 01:03:07 PM 37.0597 -123.2986 117° Southeast 586 674 39,900  Descending Oakland Center
Fri 01:04:09 PM 36.9872 -123.1189 117° Southeast 584 672 40,000 49 Climbing Oakland Center
Fri 01:05:10 PM 36.9139 -122.9400 117° Southeast 582 670 40,000  Level Oakland Center
Fri 01:06:11 PM 36.8419 -122.7614 117° Southeast 581 669 40,000 -49 Level Oakland Center
Fri 01:07:13 PM 36.7533 -122.5489 117° Southeast 579 666 39,900  Descending Oakland Center
Fri 01:08:14 PM 36.6800 -122.3722 117° Southeast 578 665 40,000 49 Climbing Oakland Center
Fri 01:09:16 PM 36.6058 -122.1950 117° Southeast 580 667 40,000 -49 Level Oakland Center
Fri 01:10:17 PM 36.5311 -122.0167 117° Southeast 585 673 39,900 -49 Descending Oakland Center
Fri 01:11:18 PM 36.4564 -121.8411 118° Southeast 579 666 39,900  Level Oakland Center
Fri 01:12:20 PM 36.3714 -121.6347 117° Southeast 586 674 39,900 49 Level Oakland Center
Fri 01:13:21 PM 36.2931 -121.4625 119° Southeast 579 666 40,000 49 Climbing Oakland Center
Fri 01:14:23 PM 36.2194 -121.2831 117° Southeast 583 671 40,000 -439 Level Oakland Center
Fri 01:15:24 PM 36.1422 -121.1089 119° Southeast 581 669 39,100 -1,180 Descending Oakland Center
Fri 01:16:25 PM 36.0664 -120.9317 118° Southeast 582 670 37,600 -1,415 Descending Oakland Center
Fri 01:17:27 PM 35.9894 -120.7544 118° Southeast 585 673 36,200 -1,268 Descending Oakland Center
Fri 01:18:28 PM 35.9117 -120.5764 118° Southeast 588 677 35,000 -585 Descending Oakland Center
Fri 01:19:30 PM 35.8342 -120.4006 118° Southeast 584 672 35,000 -49 Level Oakland Center
Fri 01:20:31 PM 35.7558 -120.2242 119° Southeast 583 671 34,900  Descending Oakland Center
Fri 01:21:32 PM 35.6769 -120.0458 119° Southeast 586 674 35,000  Climbing Oakland Center
Fri 01:22:23 PM 35.5906 -119.9283 132° Southeast 576 663 34,900 -743 Descending Los Angeles Center
Fri 01:23:25 PM 35.4333 -119.7947 145° Southeast 567 652 33,600 -1,355 Descending Los Angeles Center
Fri 01:24:27 PM 35.3047 -119.6847 145° Southeast 562 647 32,100 -1,742 Descending Los Angeles Center
Fri 01:25:29 PM 35.1756 -119.5719 144° Southeast 567 652 30,000 -2,304 Descending Los Angeles Center
Fri 01:26:32 PM 35.0472 -119.4644 146° Southeast 560 644 27,300 -2,400 Descending Los Angeles Center
Fri 01:27:34 PM 34.9203 -119.3561 145° Southeast 558 642 25,000 -2,419 Descending Los Angeles Center
Fri 01:28:36 PM 34.8081 -119.2592 145° Southeast 490 564 22,300 -2,323 Descending Los Angeles Center
Fri 01:29:38 PM 34.6856 -119.1572 146° Southeast 448 516 20,200 -1,581 Descending Los Angeles Center
Fri 01:35:22 PM 34.1257 -118.7963 146° Southeast 327 376 11,600 -1,445 Descending FlightAware ADS-B
Fri 01:36:00 PM 34.0739 -118.7746 161° South 325 374 11,000 -982 Descending FlightAware ADS-B
Fri 01:36:17 PM 34.0555 -118.7571 142° Southeast 330 380 10,700 -837 Descending FlightAware ADS-B
Fri 01:36:43 PM 34.0352 -118.7133 119° Southeast 323 372 10,400 -1,043 Descending FlightAware ADS-B
Fri 01:38:35 PM 34.0163 -118.5205 97° East 292 336 8,300 -1,051 Descending FlightAware ADS-B
Fri 01:39:00 PM 34.0128 -118.4853 97° East 278 320 8,000 -1,021 Descending FlightAware ADS-B
Fri 01:39:22 PM 34.0120 -118.4535 92° East 259 298 7,500 -1,726 Descending FlightAware ADS-B
Fri 01:40:13 PM 34.0212 -118.3834 81° East 240 276 5,900 -1,630 Descending FlightAware ADS-B
Fri 01:40:43 PM 34.0287 -118.3407 78° East 233 268 5,300 -1,059 Descending FlightAware ADS-B
Fri 01:41:21 PM 34.0360 -118.2979 78° East 200 230 4,700 -774 Descending FlightAware ADS-B
Fri 01:42:16 PM 34.0467 -118.2408 78° East 199 229 4,100 -667 Descending Los Angeles Center
Fri 01:43:18 PM 34.0153 -118.1997 133° Southeast 190 219 3,400 -774 Descending Los Angeles Center
Fri 01:44:20 PM 33.9750 -118.2347 216° Southwest 189 217 2,500 -677 Descending Los Angeles Center
Fri 01:45:22 PM 33.9642 -118.2919 257° West 182 209 2,000 -629 Descending Los Angeles Center
Fri 01:46:24 PM 33.9589 -118.3419 263° West 166 191 1,200 -816 Descending Los Angeles Center
Fri 01:47:27 PM 33.9533 -118.3969 263° West 149 171 300 -480 Descending Los Angeles Center
Fri 01:48:29 PM 33.9481 -118.4383 261° West 146 168 200 -97 Descending Los Angeles Center

Login

Don't have an account? Register now (free) for customized features, flight alerts, and more!